Time;durP1;ratioP1;P1;durP2;ratioP2;P2;SDS_P1;SDS_P2;PMS_P1;PMS_P2;Temp;Humidity;BMP_temperature;BMP_pressure;BME280_temperature;BME280_humidity;BME280_pressure;Samples;Min_cycle;Max_cycle;Signal;HPM_P1;HPM_P2
2022/07/08 00:00:40;;;;;;;10.43;2.83;;;;;;;17.69;49.22;103115.59;5217591;28;20422;-47
2022/07/08 00:03:14;;;;;;;11.93;2.10;;;;;;;17.59;49.33;103104.06;5217292;28;20815;-47
2022/07/08 00:05:46;;;;;;;13.77;3.05;;;;;;;17.56;49.33;103107.00;5215856;28;20435;-50
2022/07/08 00:08:19;;;;;;;14.90;3.10;;;;;;;17.51;49.64;103102.09;5216667;28;20705;-47
2022/07/08 00:10:52;;;;;;;9.60;2.85;;;;;;;17.52;49.71;103115.31;5217648;28;20884;-46
2022/07/08 00:13:25;;;;;;;10.05;2.60;;;;;;;17.50;49.76;103114.63;5217375;28;20391;-47
2022/07/08 00:15:59;;;;;;;15.85;2.67;;;;;;;17.46;49.87;103112.34;5213758;28;20415;-47
2022/07/08 00:18:31;;;;;;;12.50;2.53;;;;;;;17.33;50.00;103099.25;5210947;28;20909;-44
2022/07/08 00:21:07;;;;;;;11.63;2.45;;;;;;;17.39;50.13;103125.41;5214689;28;20411;-47
2022/07/08 00:23:40;;;;;;;10.35;2.65;;;;;;;17.36;50.21;103125.69;5216821;28;20431;-48
2022/07/08 00:26:13;;;;;;;11.40;2.83;;;;;;;17.33;50.29;103125.13;5215274;28;20557;-46
2022/07/08 00:28:45;;;;;;;9.13;2.63;;;;;;;17.27;50.46;103123.84;5215070;28;20473;-49
2022/07/08 00:31:19;;;;;;;18.80;3.50;;;;;;;17.16;50.39;103113.31;5212906;28;20419;-47
2022/07/08 00:33:52;;;;;;;11.43;2.38;;;;;;;17.19;50.54;103135.25;5219023;28;20398;-46
2022/07/08 00:36:25;;;;;;;14.05;2.58;;;;;;;17.15;50.60;103128.47;5216420;28;20435;-49
2022/07/08 00:38:58;;;;;;;10.57;2.70;;;;;;;17.10;50.73;103124.53;5216552;28;20432;-47
2022/07/08 00:41:31;;;;;;;10.77;2.67;;;;;;;17.02;50.99;103120.72;5215289;28;20411;-46
2022/07/08 00:44:05;;;;;;;14.07;3.15;;;;;;;17.02;51.01;103115.38;5210429;28;20410;-46
2022/07/08 00:46:39;;;;;;;10.18;2.50;;;;;;;17.01;51.21;103116.38;5219207;28;20420;-46
2022/07/08 00:49:12;;;;;;;16.20;3.28;;;;;;;16.98;51.21;103116.63;5216891;28;20426;-44
2022/07/08 00:51:46;;;;;;;13.15;3.20;;;;;;;16.92;51.12;103117.19;5211849;28;20950;-48
2022/07/08 00:54:22;;;;;;;12.85;2.90;;;;;;;16.80;51.45;103091.56;5215190;28;20427;-50
2022/07/08 00:56:55;;;;;;;12.50;3.38;;;;;;;16.89;51.64;103116.63;5214483;28;20493;-46
2022/07/08 00:59:29;;;;;;;13.10;2.50;;;;;;;16.84;51.57;103114.34;5214819;28;20778;-51
2022/07/08 01:02:03;;;;;;;14.25;3.03;;;;;;;16.77;51.61;103110.53;5216503;28;20804;-42
2022/07/08 01:04:36;;;;;;;10.27;2.42;;;;;;;16.77;51.80;103118.53;5215105;28;20411;-48
2022/07/08 01:07:09;;;;;;;13.52;3.33;;;;;;;16.73;51.95;103117.09;5218292;28;20506;-50
2022/07/08 01:09:42;;;;;;;12.63;3.47;;;;;;;16.66;52.01;103111.44;5218962;28;20419;-47
2022/07/08 01:12:15;;;;;;;8.90;2.13;;;;;;;16.66;52.11;103118.59;5214859;28;20415;-47
2022/07/08 01:14:47;;;;;;;6.72;2.47;;;;;;;16.60;52.14;103118.16;5215302;27;20500;-45
2022/07/08 01:17:26;;;;;;;11.45;2.83;;;;;;;16.57;52.32;103118.44;5217785;28;20438;-47
2022/07/08 01:19:59;;;;;;;11.07;2.72;;;;;;;16.52;52.39;103123.31;5213063;28;20914;-48
2022/07/08 01:22:33;;;;;;;13.02;3.17;;;;;;;16.48;52.42;103129.91;5213915;28;20888;-43
2022/07/08 01:25:07;;;;;;;9.80;3.03;;;;;;;16.45;52.58;103130.16;5212976;28;20419;-47
2022/07/08 01:27:58;;;;;;;7.13;2.55;;;;;;;16.42;52.58;103127.75;5220860;28;20515;-49
2022/07/08 01:30:31;;;;;;;16.15;3.22;;;;;;;16.36;52.80;103130.94;5217694;28;20423;-47
2022/07/08 01:33:04;;;;;;;12.68;2.90;;;;;;;16.34;52.83;103124.91;5214123;28;20425;-46
2022/07/08 01:35:37;;;;;;;10.90;2.70;;;;;;;16.32;52.88;103124.16;5218685;28;20895;-46
2022/07/08 01:38:11;;;;;;;14.70;2.78;;;;;;;16.30;52.97;103121.66;5219778;28;20443;-44
2022/07/08 01:40:44;;;;;;;9.98;2.47;;;;;;;16.27;53.10;103119.25;5222305;28;20737;-46
2022/07/08 01:43:17;;;;;;;10.13;2.70;;;;;;;16.24;53.25;103121.34;5220194;28;20414;-46
2022/07/08 01:45:50;;;;;;;7.90;2.55;;;;;;;16.22;53.23;103128.63;5214439;28;20431;-47
2022/07/08 01:48:23;;;;;;;9.98;2.42;;;;;;;16.18;53.26;103114.72;5218822;28;20904;-50
2022/07/08 01:50:56;;;;;;;10.95;3.20;;;;;;;16.18;53.31;103116.53;5218423;28;20407;-45
2022/07/08 01:53:30;;;;;;;9.60;2.20;;;;;;;16.14;53.41;103119.47;5218444;28;20407;-47
2022/07/08 01:56:03;;;;;;;17.35;3.38;;;;;;;16.12;53.45;103115.22;5212788;28;20521;-49
2022/07/08 01:58:36;;;;;;;12.47;2.43;;;;;;;16.08;53.65;103113.81;5218471;28;20419;-48
2022/07/08 02:01:08;;;;;;;10.30;2.72;;;;;;;16.06;53.60;103113.94;5216854;28;20790;-45
2022/07/08 02:03:41;;;;;;;14.25;3.33;;;;;;;15.79;53.49;103078.94;5222184;28;20427;-49
2022/07/08 02:06:14;;;;;;;8.95;2.65;;;;;;;15.90;53.79;103093.06;5218488;28;20821;-46
2022/07/08 02:08:50;;;;;;;13.10;2.92;;;;;;;15.98;53.93;103110.22;5219307;28;20420;-47
2022/07/08 02:14:13;;;;;;;11.05;2.80;;;;;;;15.90;53.98;103102.88;5219418;28;20431;-46
2022/07/08 02:16:45;;;;;;;15.35;3.60;;;;;;;15.90;54.10;103105.53;5220563;28;20547;-49
2022/07/08 02:19:18;;;;;;;12.15;3.22;;;;;;;15.87;54.19;103103.97;5218618;28;20431;-47
2022/07/08 02:21:51;;;;;;;11.48;2.80;;;;;;;15.76;54.25;103089.84;5218459;28;20746;-46
2022/07/08 02:24:25;;;;;;;11.75;3.03;;;;;;;15.85;54.33;103107.75;5215076;28;20751;-46
2022/07/08 02:26:58;;;;;;;9.57;2.83;;;;;;;15.74;54.33;103090.00;5216648;28;20522;-48
2022/07/08 02:29:31;;;;;;;12.52;3.08;;;;;;;15.81;54.44;103101.00;5215799;28;20863;-48
2022/07/08 02:32:04;;;;;;;12.48;3.40;;;;;;;15.76;54.39;103101.34;5216311;28;20439;-47
2022/07/08 02:34:37;;;;;;;12.80;3.13;;;;;;;15.71;54.62;103086.75;5213745;28;20573;-45
2022/07/08 02:37:10;;;;;;;11.57;2.65;;;;;;;15.78;54.63;103103.91;5217526;28;20436;-45
2022/07/08 02:39:44;;;;;;;14.20;2.88;;;;;;;15.77;54.74;103103.06;5216684;28;20520;-47
2022/07/08 02:42:17;;;;;;;17.25;3.50;;;;;;;15.70;54.74;103093.03;5217986;28;20430;-49
2022/07/08 02:44:50;;;;;;;12.85;2.63;;;;;;;15.71;54.87;103090.25;5218266;28;20427;-47
2022/07/08 02:47:22;;;;;;;9.65;2.45;;;;;;;15.71;54.95;103102.75;5208882;28;20969;-48
2022/07/08 02:49:55;;;;;;;14.07;3.03;;;;;;;15.71;54.92;103103.59;5218593;28;20424;-52
2022/07/08 02:52:28;;;;;;;11.80;2.85;;;;;;;15.71;55.09;103105.41;5217070;28;20415;-47
2022/07/08 02:55:02;;;;;;;12.45;2.60;;;;;;;15.70;55.09;103103.69;5215382;28;20749;-50
2022/07/08 02:57:35;;;;;;;13.80;2.77;;;;;;;15.70;55.13;103106.34;5200241;28;20413;-48
2022/07/08 03:00:10;;;;;;;18.35;2.95;;;;;;;15.67;55.19;103103.00;5216347;28;20432;-46
2022/07/08 03:02:42;;;;;;;11.57;3.27;;;;;;;15.63;55.19;103106.84;5215973;28;20430;-48
2022/07/08 03:05:15;;;;;;;13.20;2.88;;;;;;;15.65;55.29;103104.91;5217369;28;20506;-46
2022/07/08 03:07:48;;;;;;;9.88;2.60;;;;;;;15.64;55.29;103113.88;5217514;28;20491;-47
2022/07/08 03:10:22;;;;;;;9.88;2.58;;;;;;;15.62;55.33;103105.16;5216996;28;20426;-46
2022/07/08 03:12:55;;;;;;;17.52;3.15;;;;;;;15.52;55.54;103088.25;5215994;28;20842;-46
2022/07/08 03:15:28;;;;;;;13.73;3.08;;;;;;;15.55;55.65;103109.31;5217599;28;20416;-48
2022/07/08 03:18:01;;;;;;;13.00;3.08;;;;;;;15.52;55.51;103092.75;5216888;28;20432;-47
2022/07/08 03:20:34;;;;;;;12.98;2.92;;;;;;;15.57;55.61;103091.38;5214369;28;20451;-48
2022/07/08 03:23:07;;;;;;;9.70;2.93;;;;;;;15.53;55.73;103089.09;5216748;28;20533;-45
2022/07/08 03:25:41;;;;;;;18.92;3.53;;;;;;;15.55;55.76;103093.34;5218311;28;20429;-51
2022/07/08 03:28:14;;;;;;;12.70;2.50;;;;;;;15.44;55.61;103080.06;5213000;28;20775;-47
2022/07/08 03:30:47;;;;;;;13.80;3.00;;;;;;;15.53;55.84;103100.59;5216233;28;20432;-46
2022/07/08 03:33:22;;;;;;;15.60;3.10;;;;;;;15.48;56.00;103089.47;5215295;28;20433;-50
2022/07/08 03:35:55;;;;;;;16.55;3.45;;;;;;;15.46;56.10;103083.44;5217377;28;20806;-53
2022/07/08 03:38:27;;;;;;;16.88;3.75;;;;;;;15.54;56.09;103096.94;5219852;28;20493;-50
2022/07/08 03:43:53;;;;;;;10.93;2.97;;;;;;;15.57;55.92;103096.69;5212630;28;20412;-47
2022/07/08 03:46:26;;;;;;;8.73;2.43;;;;;;;15.58;56.25;103098.41;5214897;28;20430;-48
2022/07/08 03:48:59;;;;;;;8.27;2.95;;;;;;;15.62;56.37;103088.34;5213702;28;20417;-50
2022/07/08 03:51:31;;;;;;;11.30;3.08;;;;;;;15.64;56.35;103097.91;5211470;28;20401;-46
2022/07/08 03:54:04;;;;;;;12.90;2.90;;;;;;;15.60;56.37;103093.78;5211811;28;20895;-49
2022/07/08 03:56:39;;;;;;;15.63;2.92;;;;;;;15.64;56.33;103103.22;5214930;28;20467;-47
2022/07/08 03:59:11;;;;;;;11.73;3.10;;;;;;;15.70;56.49;103106.34;5210555;28;20427;-49
2022/07/08 04:01:44;;;;;;;11.52;2.90;;;;;;;15.77;56.61;103104.91;5215479;28;20419;-47
2022/07/08 04:04:17;;;;;;;13.23;3.08;;;;;;;15.79;56.73;103108.25;5215162;28;20477;-44
2022/07/08 04:06:49;;;;;;;12.38;2.70;;;;;;;15.80;56.66;103112.63;5217360;28;20411;-48
2022/07/08 04:09:22;;;;;;;8.88;2.67;;;;;;;15.87;56.71;103113.78;5216363;28;20390;-47
2022/07/08 04:11:56;;;;;;;12.40;3.00;;;;;;;15.92;56.67;103116.94;5211638;28;21145;-49
2022/07/08 04:14:29;;;;;;;14.15;3.20;;;;;;;15.95;56.68;103111.34;5215425;28;20419;-49
2022/07/08 04:17:01;;;;;;;16.65;3.10;;;;;;;15.99;56.78;103120.75;5213716;28;20416;-52
2022/07/08 04:19:34;;;;;;;12.07;3.15;;;;;;;15.98;56.83;103102.22;5210997;28;20492;-46
2022/07/08 04:22:07;;;;;;;11.05;2.63;;;;;;;16.09;57.03;103119.00;5216346;28;20411;-48
2022/07/08 04:24:40;;;;;;;17.43;3.80;;;;;;;16.17;56.89;103117.50;5214517;28;20896;-46
2022/07/08 04:27:14;;;;;;;11.30;2.92;;;;;;;16.28;56.84;103115.59;5215112;28;20420;-49
2022/07/08 04:29:46;;;;;;;17.13;3.07;;;;;;;16.44;56.87;103124.94;5216698;28;20416;-46
2022/07/08 04:32:19;;;;;;;15.90;3.80;;;;;;;16.56;56.61;103132.72;5223205;28;20903;-47
2022/07/08 04:34:52;;;;;;;14.02;3.10;;;;;;;16.65;56.75;103124.91;5223408;28;20439;-48
2022/07/08 04:37:25;;;;;;;10.50;3.13;;;;;;;16.72;56.76;103126.94;5222951;28;20538;-46
2022/07/08 04:39:58;;;;;;;12.23;2.90;;;;;;;16.89;56.85;103133.47;5223734;28;20819;-46
2022/07/08 04:42:32;;;;;;;13.00;3.10;;;;;;;16.99;56.69;103134.34;5225428;28;20903;-46
2022/07/08 04:45:06;;;;;;;9.07;2.72;;;;;;;16.96;56.72;103123.94;5215468;28;20882;-47
2022/07/08 04:47:39;;;;;;;11.02;2.47;;;;;;;17.15;56.63;103132.97;5224914;28;20949;-46
2022/07/08 04:50:11;;;;;;;12.75;2.53;;;;;;;17.21;56.78;103137.75;5222416;28;20453;-47
2022/07/08 04:52:44;;;;;;;12.50;3.03;;;;;;;17.30;56.55;103139.59;5221360;28;20540;-49
2022/07/08 04:55:29;;;;;;;9.70;2.65;;;;;;;17.29;56.58;103129.91;5222014;28;20443;-48
2022/07/08 04:58:05;;;;;;;9.80;2.83;;;;;;;17.41;56.53;103138.66;5222961;28;20435;-48
2022/07/08 05:00:38;;;;;;;17.52;3.40;;;;;;;17.47;56.41;103156.81;5218588;28;20548;-47
2022/07/08 05:03:11;;;;;;;16.45;3.63;;;;;;;17.49;56.37;103147.63;5222529;28;20787;-49
2022/07/08 05:05:44;;;;;;;12.85;2.60;;;;;;;17.59;56.39;103146.81;5223053;28;20510;-51
2022/07/08 05:08:16;;;;;;;15.73;3.42;;;;;;;17.62;56.39;103146.53;5225852;28;20496;-45
2022/07/08 05:10:49;;;;;;;13.15;2.50;;;;;;;17.69;56.36;103153.03;5224563;28;20426;-51
2022/07/08 05:13:26;;;;;;;13.32;2.92;;;;;;;17.77;56.32;103145.16;5221468;28;20845;-49
2022/07/08 05:16:00;;;;;;;12.38;3.00;;;;;;;17.81;56.27;103149.25;5221106;28;20406;-47
2022/07/08 05:18:33;;;;;;;21.13;3.60;;;;;;;17.90;56.25;103142.19;5220550;28;20425;-44
2022/07/08 05:21:06;;;;;;;10.63;2.50;;;;;;;17.98;56.19;103151.19;5223625;28;20856;-53
2022/07/08 05:23:38;;;;;;;12.35;3.05;;;;;;;17.99;56.30;103138.66;5223083;28;20426;-50
2022/07/08 05:26:11;;;;;;;18.08;3.15;;;;;;;18.14;56.13;103157.78;5220142;28;20894;-50
2022/07/08 05:28:45;;;;;;;15.40;3.00;;;;;;;18.21;56.01;103153.56;5222674;28;20399;-48
2022/07/08 05:31:18;;;;;;;13.10;3.38;;;;;;;18.28;56.08;103159.19;5217459;28;20484;-50
2022/07/08 05:33:51;;;;;;;11.38;3.15;;;;;;;18.34;55.88;103161.28;5220316;28;20438;-49
2022/07/08 05:36:23;;;;;;;14.07;3.45;;;;;;;18.11;55.69;103134.00;5222788;28;22646;-45
2022/07/08 05:38:56;;;;;;;14.60;3.17;;;;;;;18.46;55.94;103169.97;5226051;28;20415;-50
2022/07/08 05:41:29;;;;;;;10.80;2.92;;;;;;;18.46;55.89;103159.25;5215866;28;20417;-49
2022/07/08 05:44:03;;;;;;;13.13;2.95;;;;;;;18.57;55.78;103170.63;5208286;28;20427;-50
2022/07/08 05:46:36;;;;;;;14.30;3.45;;;;;;;18.62;55.68;103167.53;5207880;28;20490;-51
2022/07/08 05:49:08;;;;;;;15.57;2.70;;;;;;;18.67;55.67;103174.16;5222234;28;20446;-52
2022/07/08 05:51:41;;;;;;;17.40;3.13;;;;;;;18.73;55.47;103164.69;5216794;28;20423;-49
2022/07/08 05:54:14;;;;;;;12.60;2.92;;;;;;;18.80;55.58;103173.84;5225183;27;20430;-46
2022/07/08 05:56:47;;;;;;;8.90;2.72;;;;;;;18.90;55.49;103176.47;5216266;28;20436;-50
2022/07/08 05:59:21;;;;;;;11.95;3.10;;;;;;;19.00;55.43;103171.06;5217021;28;20427;-50
2022/07/08 06:01:54;;;;;;;11.50;2.70;;;;;;;19.10;55.40;103174.53;5209220;28;22908;-49
2022/07/08 06:04:27;;;;;;;13.40;2.77;;;;;;;19.20;55.19;103171.78;5211277;28;20427;-50
2022/07/08 06:07:00;;;;;;;14.48;2.67;;;;;;;19.28;55.29;103170.06;5200757;28;20433;-48
2022/07/08 06:09:33;;;;;;;11.80;2.88;;;;;;;19.41;55.04;103168.84;5208353;28;20553;-46
2022/07/08 06:12:07;;;;;;;13.93;3.55;;;;;;;19.49;55.00;103177.00;5222832;28;20420;-49
2022/07/08 06:14:41;;;;;;;16.90;3.33;;;;;;;19.57;54.99;103179.72;5219197;28;20466;-50
2022/07/08 06:17:14;;;;;;;12.50;2.45;;;;;;;19.68;54.73;103166.16;5224439;28;20481;-51
2022/07/08 06:19:47;;;;;;;14.13;2.90;;;;;;;19.80;54.75;103175.63;5221182;28;20415;-52
2022/07/08 06:22:19;;;;;;;10.57;2.40;;;;;;;19.90;54.60;103172.03;5226229;28;20462;-53
2022/07/08 06:24:55;;;;;;;9.45;2.50;;;;;;;20.00;54.50;103170.09;5215246;28;22049;-54
2022/07/08 06:27:28;;;;;;;8.98;2.33;;;;;;;20.09;54.49;103179.91;5215791;28;20523;-49
2022/07/08 06:30:02;;;;;;;10.30;3.05;;;;;;;20.20;54.20;103185.03;5224958;28;20577;-54
2022/07/08 06:32:34;;;;;;;12.93;2.80;;;;;;;20.31;54.24;103183.06;5220542;28;20424;-51
2022/07/08 06:35:08;;;;;;;7.32;2.42;;;;;;;20.45;53.97;103191.41;5223100;28;20490;-52
2022/07/08 06:37:41;;;;;;;12.17;2.67;;;;;;;20.59;53.80;103187.31;5210627;28;20456;-49
2022/07/08 06:40:14;;;;;;;8.85;2.15;;;;;;;20.74;53.64;103187.56;5211470;28;20430;-53
2022/07/08 06:42:47;;;;;;;9.33;2.43;;;;;;;20.89;53.54;103194.00;5217196;28;20871;-53
2022/07/08 06:45:22;;;;;;;11.95;2.22;;;;;;;20.87;53.37;103160.25;5221923;28;20476;-49
2022/07/08 06:47:55;;;;;;;7.57;2.60;;;;;;;21.12;52.86;103188.94;5220887;28;20400;-53
2022/07/08 06:50:28;;;;;;;7.20;2.10;;;;;;;21.36;52.83;103190.03;5219829;28;20431;-49
2022/07/08 06:53:01;;;;;;;12.98;2.70;;;;;;;21.60;52.56;103192.75;5214145;28;20409;-52
2022/07/08 06:55:33;;;;;;;9.50;2.58;;;;;;;21.92;52.29;103180.34;5218487;28;20427;-51
2022/07/08 06:58:06;;;;;;;6.80;2.10;;;;;;;22.30;51.69;103186.09;5219909;28;20423;-49
2022/07/08 07:00:40;;;;;;;5.90;2.10;;;;;;;22.68;51.37;103175.56;5221014;28;20767;-50
2022/07/08 07:03:13;;;;;;;12.43;3.08;;;;;;;23.10;50.77;103185.16;5218432;28;20514;-48
2022/07/08 07:05:46;;;;;;;10.35;2.60;;;;;;;23.48;50.18;103195.06;5223487;28;20420;-50
2022/07/08 07:08:18;;;;;;;10.43;2.45;;;;;;;23.78;49.82;103187.13;5212527;28;20780;-53
2022/07/08 07:10:51;;;;;;;11.73;2.40;;;;;;;24.02;49.43;103179.84;5211105;28;20950;-51
2022/07/08 07:13:24;;;;;;;9.23;2.70;;;;;;;24.21;49.14;103183.88;5216108;28;21008;-51
2022/07/08 07:15:58;;;;;;;7.28;1.83;;;;;;;24.48;48.77;103186.00;5210270;28;20414;-53
2022/07/08 07:18:31;;;;;;;9.60;2.60;;;;;;;24.72;48.29;103184.06;5207847;28;20426;-52
2022/07/08 07:21:04;;;;;;;7.73;2.50;;;;;;;25.03;47.95;103190.06;5211122;28;20434;-51
2022/07/08 07:23:37;;;;;;;9.30;2.28;;;;;;;25.42;47.44;103177.22;5208895;28;20449;-55
2022/07/08 07:26:10;;;;;;;10.63;2.30;;;;;;;26.21;46.65;103177.94;5211538;28;20424;-51
2022/07/08 07:28:42;;;;;;;8.25;2.50;;;;;;;26.94;45.86;103176.69;5212553;28;20428;-51
2022/07/08 07:31:17;;;;;;;5.95;2.15;;;;;;;27.46;45.02;103180.63;5210669;28;20437;-55
2022/07/08 07:33:49;;;;;;;10.23;2.17;;;;;;;28.09;44.36;103174.84;5210896;28;20911;-50
2022/07/08 07:36:22;;;;;;;7.68;2.03;;;;;;;28.85;43.71;103185.13;5211443;28;20429;-53
2022/07/08 07:38:55;;;;;;;8.37;2.13;;;;;;;29.58;43.11;103176.59;5207101;28;20717;-52
2022/07/08 07:41:27;;;;;;;10.67;1.90;;;;;;;30.20;42.40;103172.13;5209323;28;20508;-52
2022/07/08 07:44:00;;;;;;;8.90;2.30;;;;;;;30.81;41.88;103178.56;5217842;28;20425;-54
2022/07/08 07:46:35;;;;;;;8.73;1.92;;;;;;;31.44;41.21;103183.59;5216617;28;20404;-48
2022/07/08 07:49:07;;;;;;;6.25;1.80;;;;;;;31.87;40.94;103178.91;5215576;28;20400;-58
2022/07/08 07:51:40;;;;;;;8.02;1.98;;;;;;;32.11;40.93;103183.31;5220521;28;20420;-56
2022/07/08 07:54:13;;;;;;;10.00;1.83;;;;;;;32.27;40.59;103187.25;5215816;28;20423;-55
2022/07/08 07:56:46;;;;;;;6.05;2.17;;;;;;;32.54;40.59;103181.28;5215637;28;20803;-52
2022/07/08 07:59:18;;;;;;;6.63;1.60;;;;;;;32.69;40.33;103178.03;5202035;28;20420;-54
2022/07/08 08:01:53;;;;;;;8.60;1.60;;;;;;;32.84;40.11;103181.91;5212116;28;20423;-56
2022/07/08 08:04:25;;;;;;;5.57;1.60;;;;;;;33.01;39.98;103187.44;5220331;28;20410;-57
2022/07/08 08:06:58;;;;;;;6.18;1.60;;;;;;;33.11;39.98;103183.22;5207793;28;20867;-57
2022/07/08 08:09:31;;;;;;;7.20;1.63;;;;;;;33.03;39.75;103179.81;5217643;28;20506;-56
2022/07/08 08:12:05;;;;;;;6.68;1.50;;;;;;;33.05;39.60;103191.38;5202378;28;20850;-59
2022/07/08 08:14:37;;;;;;;6.13;1.60;;;;;;;33.08;39.59;103186.47;5219245;28;20751;-55
2022/07/08 08:17:12;;;;;;;6.57;1.80;;;;;;;33.02;39.17;103193.78;5219531;28;20977;-57
2022/07/08 08:19:46;;;;;;;5.17;1.43;;;;;;;32.99;39.22;103180.56;5211932;28;20439;-57
2022/07/08 08:22:18;;;;;;;7.03;1.50;;;;;;;32.90;38.81;103169.16;5214126;28;20622;-55
2022/07/08 08:24:51;;;;;;;7.70;1.60;;;;;;;33.08;38.91;103186.47;5214820;28;20506;-55
2022/07/08 08:27:24;;;;;;;5.93;1.50;;;;;;;33.13;38.39;103194.78;5210943;28;20375;-58
2022/07/08 08:29:56;;;;;;;4.75;1.35;;;;;;;33.03;38.68;103207.19;5202563;28;20504;-57
2022/07/08 08:32:31;;;;;;;3.78;1.10;;;;;;;32.81;38.28;103193.34;5198194;28;20788;-56
2022/07/08 08:35:04;;;;;;;4.15;1.20;;;;;;;32.75;38.52;103204.41;5202639;28;20424;-55
2022/07/08 08:37:37;;;;;;;5.43;1.30;;;;;;;32.65;38.46;103204.22;5210534;28;20943;-57
2022/07/08 08:40:12;;;;;;;7.05;1.58;;;;;;;32.50;38.48;103191.88;5211151;28;20473;-56
2022/07/08 08:42:45;;;;;;;4.97;1.67;;;;;;;32.30;38.19;103189.50;5212509;28;20492;-57
2022/07/08 08:45:18;;;;;;;5.80;1.52;;;;;;;32.25;38.33;103196.75;5200584;28;20878;-56
2022/07/08 08:47:53;;;;;;;3.83;1.40;;;;;;;32.19;37.83;103194.97;5219027;28;20967;-56
2022/07/08 08:53:19;;;;;;;5.15;1.50;;;;;;;31.83;37.74;103180.44;5198695;28;20427;-57
2022/07/08 08:55:52;;;;;;;7.20;1.60;;;;;;;31.88;37.57;103192.31;5214181;28;20431;-58
2022/07/08 08:58:25;;;;;;;5.70;1.10;;;;;;;31.91;37.20;103196.53;5215769;28;20419;-55
2022/07/08 09:00:58;;;;;;;3.22;1.08;;;;;;;31.85;37.13;103200.16;5207691;28;20429;-57
2022/07/08 09:03:32;;;;;;;2.60;0.85;;;;;;;31.60;36.84;103197.63;5204875;28;20427;-57
2022/07/08 09:06:06;;;;;;;1.88;0.80;;;;;;;31.45;36.98;103195.34;5200804;28;20447;-56
2022/07/08 09:08:39;;;;;;;3.25;1.02;;;;;;;31.34;36.53;103186.06;5207704;28;20424;-54
2022/07/08 09:11:12;;;;;;;4.47;1.00;;;;;;;31.38;36.11;103200.09;5209187;28;20968;-56
2022/07/08 09:13:45;;;;;;;4.45;1.23;;;;;;;31.39;35.77;103196.28;5204427;28;20425;-54
2022/07/08 09:16:18;;;;;;;5.68;1.48;;;;;;;31.38;35.27;103189.16;5216318;28;20431;-58
2022/07/08 09:18:56;;;;;;;4.07;1.60;;;;;;;31.38;35.23;103189.16;5214421;28;20435;-55
2022/07/08 09:21:29;;;;;;;2.38;1.05;;;;;;;31.26;34.65;103185.53;5212346;28;20416;-55
2022/07/08 09:24:18;;;;;;;5.43;1.20;;;;;;;31.24;34.38;103189.31;5218098;28;20408;-57
2022/07/08 09:26:56;;;;;;;3.03;0.80;;;;;;;31.19;33.98;103191.09;5219558;28;20923;-55
2022/07/08 09:29:28;;;;;;;2.60;1.10;;;;;;;31.20;33.57;103185.38;5219153;28;20403;-56
2022/07/08 09:32:18;;;;;;;2.70;0.95;;;;;;;31.10;32.97;103160.53;5211297;28;20413;-55
2022/07/08 09:34:52;;;;;;;3.22;0.98;;;;;;;31.26;32.78;103183.63;5201251;28;20425;-56
2022/07/08 09:37:24;;;;;;;5.15;0.95;;;;;;;30.98;32.59;103151.47;5207903;28;20766;-54
2022/07/08 09:39:57;;;;;;;3.88;1.25;;;;;;;31.17;32.42;103188.56;5207772;28;20427;-55
2022/07/08 09:42:40;;;;;;;2.63;1.00;;;;;;;31.07;32.33;103190.22;5206335;28;20972;-55
2022/07/08 09:45:13;;;;;;;4.43;1.00;;;;;;;30.88;32.32;103183.94;5204967;28;20409;-55
2022/07/08 09:47:46;;;;;;;5.35;1.60;;;;;;;30.82;32.52;103190.31;5204163;28;20921;-55
2022/07/08 09:50:31;;;;;;;6.35;1.52;;;;;;;30.73;32.44;103193.31;5205340;28;20429;-53
2022/07/08 09:53:16;;;;;;;5.28;1.40;;;;;;;30.53;32.60;103195.44;5204882;28;20427;-57
2022/07/08 09:55:52;;;;;;;3.92;1.35;;;;;;;30.40;32.49;103171.88;5206381;28;21087;-54
2022/07/08 09:58:27;;;;;;;7.00;1.60;;;;;;;30.54;32.36;103200.69;5182034;28;20526;-55
2022/07/08 10:01:01;;;;;;;5.03;1.80;;;;;;;30.58;32.35;103190.16;5207717;28;20452;-52
2022/07/08 10:03:35;;;;;;;6.13;1.53;;;;;;;30.62;32.38;103195.97;5187831;28;20497;-60
2022/07/08 10:06:10;;;;;;;7.60;1.40;;;;;;;30.63;32.33;103198.50;5207788;28;20484;-55
2022/07/08 10:08:43;;;;;;;4.13;1.17;;;;;;;30.62;32.03;103202.25;5206033;28;20522;-56
2022/07/08 10:11:17;;;;;;;4.60;1.13;;;;;;;30.51;32.27;103200.31;5206637;28;20431;-51
2022/07/08 10:13:50;;;;;;;4.95;1.58;;;;;;;30.49;32.05;103202.41;5209733;28;20928;-54
2022/07/08 10:16:22;;;;;;;5.63;1.60;;;;;;;30.48;32.05;103198.03;5208284;28;20777;-52
2022/07/08 10:18:57;;;;;;;6.53;1.80;;;;;;;30.49;31.89;103213.31;5209161;28;20840;-46
2022/07/08 10:21:33;;;;;;;6.73;1.40;;;;;;;30.48;31.83;103206.22;5210741;28;21020;-53
2022/07/08 10:24:08;;;;;;;5.70;1.63;;;;;;;30.50;31.77;103202.19;5205742;28;20824;-53
2022/07/08 10:26:42;;;;;;;8.40;1.73;;;;;;;30.51;31.67;103205.75;5208637;28;20431;-54
2022/07/08 10:29:15;;;;;;;5.53;1.15;;;;;;;30.54;31.84;103194.41;5205606;28;20461;-56
2022/07/08 10:31:51;;;;;;;5.50;1.30;;;;;;;30.56;31.75;103204.00;5206618;28;20516;-53
2022/07/08 10:34:32;;;;;;;5.07;1.60;;;;;;;30.64;31.73;103200.16;5203222;28;20409;-54
2022/07/08 10:37:06;;;;;;;5.78;1.60;;;;;;;30.65;31.72;103196.34;5204767;28;20518;-52
2022/07/08 10:39:41;;;;;;;6.78;1.45;;;;;;;30.65;31.81;103199.06;5211582;28;20427;-53
2022/07/08 10:42:14;;;;;;;4.97;0.93;;;;;;;30.63;31.60;103197.63;5214312;28;20424;-53
2022/07/08 10:44:52;;;;;;;6.55;1.83;;;;;;;30.60;31.76;103204.41;5217484;28;20427;-52
2022/07/08 10:47:28;;;;;;;5.67;1.30;;;;;;;30.60;31.67;103201.69;5215517;28;20447;-52
2022/07/08 10:50:07;;;;;;;7.13;1.45;;;;;;;30.63;31.67;103201.22;5216318;28;20776;-52
2022/07/08 10:52:43;;;;;;;6.80;1.27;;;;;;;30.58;31.54;103195.59;5214298;28;20412;-55
2022/07/08 10:55:17;;;;;;;7.03;1.58;;;;;;;30.57;31.70;103196.69;5212046;28;20415;-51
2022/07/08 10:57:57;;;;;;;5.22;1.95;;;;;;;30.21;31.69;103157.41;5207549;28;20422;-48
2022/07/08 11:00:35;;;;;;;7.05;2.17;;;;;;;30.45;31.72;103184.84;5212942;28;20419;-51
2022/07/08 11:03:11;;;;;;;6.80;1.60;;;;;;;30.46;31.80;103189.25;5214171;28;20419;-49
2022/07/08 11:05:45;;;;;;;8.38;2.30;;;;;;;30.37;31.94;103176.97;5207248;28;20431;-50
2022/07/08 11:08:26;;;;;;;7.13;2.05;;;;;;;30.42;32.10;103193.50;5213050;28;20428;-51
2022/07/08 11:11:03;;;;;;;6.88;1.75;;;;;;;30.30;32.19;103188.78;5217217;28;20756;-48
2022/07/08 11:13:37;;;;;;;10.83;2.40;;;;;;;30.24;32.22;103189.69;5214436;28;20425;-50
2022/07/08 11:16:12;;;;;;;6.85;1.58;;;;;;;30.16;32.24;103198.09;5214472;28;20439;-49
2022/07/08 11:18:49;;;;;;;8.23;1.63;;;;;;;29.64;32.29;103116.66;5215629;28;20455;-47
2022/07/08 11:21:21;;;;;;;6.50;2.10;;;;;;;30.19;32.12;103196.81;5213306;28;20426;-48
2022/07/08 11:23:56;;;;;;;11.43;2.05;;;;;;;30.24;32.17;103197.84;5214896;28;20787;-48
2022/07/08 11:26:30;;;;;;;13.00;2.28;;;;;;;30.27;32.13;103194.69;5217747;28;20517;-48
2022/07/08 11:29:02;;;;;;;10.05;2.13;;;;;;;30.32;32.02;103192.13;5214546;28;20426;-51
2022/07/08 11:31:35;;;;;;;8.57;1.98;;;;;;;30.31;32.29;103201.34;5209835;28;20406;-49
2022/07/08 11:34:20;;;;;;;9.55;1.80;;;;;;;30.26;32.50;103195.75;5189596;28;20422;-48
2022/07/08 11:36:56;;;;;;;8.90;1.98;;;;;;;30.32;32.42;103191.28;5193533;28;20417;-50
2022/07/08 11:40:05;;;;;;;7.45;2.28;;;;;;;30.46;32.41;103187.34;5244383;27;20445;-48
2022/07/08 11:42:38;;;;;;;6.55;1.98;;;;;;;30.53;32.25;103187.25;5216249;28;20416;-48
2022/07/08 11:45:13;;;;;;;11.03;2.23;;;;;;;30.56;32.70;103195.00;5216283;28;20409;-51
2022/07/08 11:47:46;;;;;;;17.77;3.00;;;;;;;30.43;32.68;103162.44;5210630;28;20413;-50
2022/07/08 11:50:19;;;;;;;11.53;2.03;;;;;;;30.71;32.65;103187.25;5209988;28;20426;-50
2022/07/08 11:52:54;;;;;;;11.15;1.95;;;;;;;30.81;32.65;103189.47;5212676;28;20493;-48
2022/07/08 11:55:28;;;;;;;9.30;2.10;;;;;;;30.83;32.66;103198.28;5212899;28;20421;-50
2022/07/08 11:58:01;;;;;;;8.35;1.98;;;;;;;30.79;32.77;103186.16;5214611;28;20858;-51
2022/07/08 12:00:36;;;;;;;7.90;2.70;;;;;;;30.76;32.79;103179.22;5211485;28;20744;-51